createdAt,value
2019-01-26T00:00:21.118Z,-6.20
2019-01-26T00:02:52.318Z,-6.20
2019-01-26T00:05:22.650Z,-6.10
2019-01-26T00:07:52.928Z,-6.10
2019-01-26T00:10:23.157Z,-6.10
2019-01-26T00:12:53.393Z,-6.10
2019-01-26T00:15:23.635Z,-6.00
2019-01-26T00:17:53.940Z,-6.10
2019-01-26T00:20:24.223Z,-6.10
2019-01-26T00:22:54.643Z,-6.00
2019-01-26T00:25:24.829Z,-6.00
2019-01-26T00:27:55.229Z,-6.00
2019-01-26T00:30:25.490Z,-6.00
2019-01-26T00:32:55.824Z,-6.00
2019-01-26T00:35:26.024Z,-6.00
2019-01-26T00:37:56.680Z,-6.00
2019-01-26T00:40:27.037Z,-6.00
2019-01-26T00:42:57.469Z,-6.00
2019-01-26T00:45:27.802Z,-6.00
2019-01-26T00:47:58.316Z,-6.00
2019-01-26T00:50:28.603Z,-5.90
2019-01-26T00:52:58.989Z,-6.00
2019-01-26T00:55:29.280Z,-6.00
2019-01-26T00:57:59.596Z,-6.00
2019-01-26T01:00:29.855Z,-6.00
2019-01-26T01:03:00.159Z,-6.00
2019-01-26T01:05:30.509Z,-6.00
2019-01-26T01:08:00.761Z,-6.00
2019-01-26T01:10:30.997Z,-5.90
2019-01-26T01:13:01.369Z,-6.00
2019-01-26T01:15:31.801Z,-5.90
2019-01-26T01:18:02.109Z,-5.90
2019-01-26T01:20:32.527Z,-5.90
2019-01-26T01:23:02.968Z,-5.90
2019-01-26T01:25:33.278Z,-5.90
2019-01-26T01:28:03.510Z,-5.90
2019-01-26T01:30:33.768Z,-5.90
2019-01-26T01:33:04.156Z,-5.90
2019-01-26T01:35:34.565Z,-5.90
2019-01-26T01:38:04.910Z,-5.90
2019-01-26T01:40:35.154Z,-5.80
2019-01-26T01:43:05.660Z,-5.80
2019-01-26T01:45:35.973Z,-5.80
2019-01-26T01:48:06.223Z,-5.80
2019-01-26T01:50:36.576Z,-5.80
2019-01-26T01:53:06.841Z,-5.80
2019-01-26T01:55:37.176Z,-5.80
2019-01-26T01:58:07.419Z,-5.90
2019-01-26T02:00:37.895Z,-5.80
2019-01-26T02:03:08.104Z,-5.80
2019-01-26T02:05:38.409Z,-5.90
2019-01-26T02:08:08.726Z,-5.90
2019-01-26T02:10:39.078Z,-5.90
2019-01-26T02:13:09.451Z,-5.90
2019-01-26T02:15:39.771Z,-5.80
2019-01-26T02:18:10.128Z,-5.80
2019-01-26T02:20:40.410Z,-5.80
2019-01-26T02:23:10.939Z,-5.80
2019-01-26T02:25:41.268Z,-5.90
2019-01-26T02:28:11.638Z,-5.90
2019-01-26T02:30:41.841Z,-5.80
2019-01-26T02:33:12.155Z,-5.80
2019-01-26T02:35:42.514Z,-5.80
2019-01-26T02:38:14.324Z,-5.80
2019-01-26T02:40:44.519Z,-5.70
2019-01-26T02:43:14.932Z,-5.70
2019-01-26T02:45:45.337Z,-5.70
2019-01-26T02:48:15.613Z,-5.70
2019-01-26T02:50:45.949Z,-5.70
2019-01-26T02:53:16.150Z,-5.70
2019-01-26T02:55:46.538Z,-5.70
2019-01-26T02:58:16.755Z,-5.70
2019-01-26T03:00:47.133Z,-5.70
2019-01-26T03:03:17.417Z,-5.70
2019-01-26T03:05:47.778Z,-5.70
2019-01-26T03:08:18.188Z,-5.70
2019-01-26T03:10:48.643Z,-5.70
2019-01-26T03:13:18.883Z,-5.70
2019-01-26T03:15:49.363Z,-5.60
2019-01-26T03:18:19.750Z,-5.60
2019-01-26T03:20:50.094Z,-5.60
2019-01-26T03:23:20.570Z,-5.60
2019-01-26T03:25:50.779Z,-5.60
2019-01-26T03:28:21.081Z,-5.60
2019-01-26T03:30:51.320Z,-5.60
2019-01-26T03:33:21.595Z,-5.60
2019-01-26T03:35:52.003Z,-5.60
2019-01-26T03:38:22.366Z,-5.70
2019-01-26T03:40:52.741Z,-5.60
2019-01-26T03:43:23.029Z,-5.60
2019-01-26T03:45:53.317Z,-5.60
2019-01-26T03:48:23.651Z,-5.60
2019-01-26T03:50:53.863Z,-5.60
2019-01-26T03:53:24.171Z,-5.60
2019-01-26T03:55:54.463Z,-5.60
2019-01-26T03:58:24.685Z,-5.60
2019-01-26T04:00:54.992Z,-5.60
2019-01-26T04:03:25.434Z,-5.60
2019-01-26T04:05:55.665Z,-5.60
2019-01-26T04:08:26.175Z,-5.60
2019-01-26T04:10:56.580Z,-5.60
2019-01-26T04:13:27.004Z,-5.50
2019-01-26T04:15:57.265Z,-5.50
2019-01-26T04:18:27.583Z,-5.50
2019-01-26T04:20:57.824Z,-5.50
2019-01-26T04:23:28.063Z,-5.50
2019-01-26T04:25:58.351Z,-5.50
2019-01-26T04:28:28.675Z,-5.50
2019-01-26T04:30:59.039Z,-5.50
2019-01-26T04:33:29.425Z,-5.50
2019-01-26T04:35:59.754Z,-5.50
2019-01-26T04:38:30.208Z,-5.50
2019-01-26T04:41:00.507Z,-5.50
2019-01-26T04:43:30.788Z,-5.60
2019-01-26T04:46:01.150Z,-5.60
2019-01-26T04:48:31.584Z,-5.60
2019-01-26T04:51:02.175Z,-5.60
2019-01-26T04:53:33.945Z,-5.60
2019-01-26T04:56:04.277Z,-5.60
2019-01-26T04:58:34.730Z,-5.60
2019-01-26T05:01:05.038Z,-5.70
2019-01-26T05:03:35.352Z,-5.60
2019-01-26T05:06:05.742Z,-5.60
2019-01-26T05:08:36.016Z,-5.60
2019-01-26T05:11:06.225Z,-5.60
2019-01-26T05:13:36.658Z,-5.70
2019-01-26T05:16:07.000Z,-5.70
2019-01-26T05:18:37.250Z,-5.70
2019-01-26T05:21:08.861Z,-5.70
2019-01-26T05:23:39.300Z,-5.70
2019-01-26T05:26:10.022Z,-5.80
2019-01-26T05:28:40.352Z,-6.60
2019-01-26T05:31:10.688Z,-5.70
2019-01-26T05:33:41.093Z,-5.70
2019-01-26T05:36:11.602Z,-5.70
2019-01-26T05:38:42.162Z,-5.80
2019-01-26T05:41:12.389Z,-5.80
2019-01-26T05:43:42.680Z,-5.80
2019-01-26T05:46:12.966Z,-5.80
2019-01-26T05:48:43.408Z,-5.90
2019-01-26T05:51:13.692Z,-5.90
2019-01-26T05:53:44.101Z,-5.80
2019-01-26T05:56:14.433Z,-5.80
2019-01-26T05:58:44.610Z,-5.80
2019-01-26T06:01:14.896Z,-5.80
2019-01-26T06:03:46.117Z,-5.80
2019-01-26T06:06:16.364Z,-5.80
2019-01-26T06:08:46.740Z,-5.80
2019-01-26T06:11:16.977Z,-5.80
2019-01-26T06:13:47.198Z,-5.80
2019-01-26T06:16:17.416Z,-5.80
2019-01-26T06:18:47.986Z,-5.80
2019-01-26T06:21:18.390Z,-5.80
2019-01-26T06:23:48.706Z,-5.80
2019-01-26T06:26:19.140Z,-5.80
2019-01-26T06:28:49.458Z,-5.90
2019-01-26T06:31:19.777Z,-5.80
2019-01-26T06:33:50.110Z,-5.80
2019-01-26T06:36:20.525Z,-5.80
2019-01-26T06:38:50.785Z,-5.80
2019-01-26T06:41:21.072Z,-5.80
2019-01-26T06:43:51.410Z,-5.90
2019-01-26T06:46:21.850Z,-5.90
2019-01-26T06:48:55.916Z,-5.90
2019-01-26T06:51:26.336Z,-5.90
2019-01-26T06:53:56.702Z,-5.80
2019-01-26T06:56:26.976Z,-5.80
2019-01-26T06:58:57.223Z,-5.70
2019-01-26T07:01:27.660Z,-5.70
2019-01-26T07:03:58.012Z,-5.60
2019-01-26T07:06:37.082Z,-5.50
2019-01-26T07:09:08.975Z,-5.50
2019-01-26T07:11:39.353Z,-5.40
2019-01-26T07:14:09.731Z,-5.30
2019-01-26T07:16:39.946Z,-5.30
2019-01-26T07:21:52.119Z,-5.20
2019-01-26T07:24:22.589Z,-5.20
2019-01-26T07:26:52.982Z,-5.10
2019-01-26T07:29:23.256Z,-5.00
2019-01-26T07:31:53.680Z,-5.00
2019-01-26T07:34:23.971Z,-5.00
2019-01-26T07:36:54.424Z,-4.90
2019-01-26T07:39:24.742Z,-4.90
2019-01-26T07:41:55.452Z,-4.90
2019-01-26T07:44:26.067Z,-4.90
2019-01-26T07:46:56.432Z,-4.90
2019-01-26T07:49:26.885Z,-4.90
2019-01-26T07:51:57.558Z,-4.90
2019-01-26T07:54:28.022Z,-4.80
2019-01-26T07:56:58.301Z,-4.90
2019-01-26T07:59:28.760Z,-4.80
2019-01-26T08:01:59.165Z,-4.80
2019-01-26T08:04:29.613Z,-4.70
2019-01-26T08:06:59.918Z,-4.60
2019-01-26T08:09:30.369Z,-4.60
2019-01-26T08:12:00.810Z,-4.40
2019-01-26T08:14:31.223Z,-4.40
2019-01-26T08:17:01.660Z,-4.40
2019-01-26T08:19:31.972Z,-4.50
2019-01-26T08:22:02.401Z,-4.50
2019-01-26T08:24:33.056Z,-4.50
2019-01-26T08:27:03.663Z,-4.40
2019-01-26T08:29:34.219Z,-4.40
2019-01-26T08:32:04.618Z,-4.40
2019-01-26T08:34:35.158Z,-4.20
2019-01-26T08:37:08.588Z,-4.10
2019-01-26T08:39:39.001Z,-4.00
2019-01-26T08:42:09.351Z,-4.00
2019-01-26T08:44:39.818Z,-4.00
2019-01-26T08:47:10.454Z,-3.90
2019-01-26T08:49:40.684Z,-3.80
2019-01-26T08:52:11.101Z,-3.80
2019-01-26T08:54:41.647Z,-3.70
2019-01-26T08:57:12.161Z,-3.60
2019-01-26T08:59:42.452Z,-3.50
2019-01-26T09:02:25.532Z,-3.40
2019-01-26T09:04:57.357Z,-3.40
2019-01-26T09:07:28.506Z,-3.20
2019-01-26T09:09:59.290Z,-3.10
2019-01-26T09:12:29.882Z,-3.00
2019-01-26T09:15:00.502Z,-2.80
2019-01-26T09:17:30.831Z,-2.70
2019-01-26T09:20:01.464Z,-2.80
2019-01-26T09:22:31.755Z,-2.70
2019-01-26T09:25:02.082Z,-2.60
2019-01-26T09:27:32.382Z,-2.60
2019-01-26T09:30:03.992Z,-2.60
2019-01-26T09:32:34.566Z,-2.60
2019-01-26T09:35:05.401Z,-2.60
2019-01-26T09:37:35.695Z,-2.50
2019-01-26T09:40:06.592Z,-2.40
2019-01-26T09:42:37.059Z,-2.30
2019-01-26T09:45:10.544Z,-2.30
2019-01-26T09:47:41.081Z,-2.10
2019-01-26T09:50:11.609Z,-1.80
2019-01-26T09:52:42.141Z,-1.60
2019-01-26T09:55:12.745Z,-1.40
2019-01-26T09:57:43.203Z,-1.40
2019-01-26T10:00:16.132Z,-1.30
2019-01-26T10:02:46.638Z,-1.40
2019-01-26T10:05:17.095Z,-1.40
2019-01-26T10:07:47.528Z,-1.30
2019-01-26T10:10:17.967Z,-1.60
2019-01-26T10:12:48.390Z,-1.50
2019-01-26T10:15:18.858Z,-1.40
2019-01-26T10:17:49.591Z,-1.10
2019-01-26T10:20:23.196Z,-1.00
2019-01-26T10:22:53.851Z,-1.00
2019-01-26T10:25:25.915Z,-0.80
2019-01-26T10:27:56.304Z,-0.90
2019-01-26T10:30:32.870Z,-0.90
2019-01-26T10:33:03.286Z,-1.00
2019-01-26T10:35:52.771Z,-1.00
2019-01-26T10:38:23.190Z,-1.00
2019-01-26T10:41:12.672Z,-1.00
2019-01-26T10:43:46.747Z,-0.90
2019-01-26T10:46:17.101Z,-0.90
2019-01-26T10:48:47.629Z,-0.80
2019-01-26T10:51:18.335Z,-0.90
2019-01-26T10:53:48.900Z,-0.90
2019-01-26T10:56:20.731Z,-1.00
2019-01-26T10:58:51.378Z,-1.00
2019-01-26T11:01:21.737Z,-1.00
2019-01-26T11:03:52.383Z,-0.90
2019-01-26T11:06:22.655Z,-0.50
2019-01-26T11:08:53.191Z,-0.40
2019-01-26T11:11:23.682Z,-0.30
2019-01-26T11:13:54.041Z,-0.30
2019-01-26T11:16:24.541Z,-0.10
2019-01-26T11:18:55.031Z,-0.10
2019-01-26T11:21:25.524Z,0.00
2019-01-26T11:23:56.061Z,0.20
2019-01-26T11:26:26.452Z,0.30
2019-01-26T11:28:56.763Z,0.40
2019-01-26T11:31:27.409Z,0.40
2019-01-26T11:33:57.755Z,0.40
2019-01-26T11:36:29.489Z,0.30
2019-01-26T11:38:59.848Z,0.20
2019-01-26T11:41:30.383Z,0.30
2019-01-26T11:44:00.853Z,0.40
2019-01-26T11:46:36.082Z,0.60
2019-01-26T11:49:06.573Z,1.00
2019-01-26T11:51:56.015Z,1.10
2019-01-26T11:54:26.384Z,1.30
2019-01-26T11:57:15.782Z,1.50
2019-01-26T12:00:05.610Z,1.20
2019-01-26T12:02:44.612Z,1.10
2019-01-26T12:05:34.135Z,0.90
2019-01-26T12:08:04.561Z,0.80
2019-01-26T12:10:35.091Z,0.50
2019-01-26T12:13:05.699Z,0.20
2019-01-26T12:15:36.110Z,0.00
2019-01-26T12:18:06.664Z,-0.40
2019-01-26T12:20:37.195Z,-0.60
2019-01-26T12:23:07.538Z,-1.00
2019-01-26T12:25:39.162Z,-1.10
2019-01-26T12:28:09.498Z,-1.40
2019-01-26T12:30:40.023Z,-1.40
2019-01-26T12:33:10.444Z,-1.20
2019-01-26T12:35:40.827Z,-1.40
2019-01-26T12:38:12.218Z,-1.50
2019-01-26T12:40:42.740Z,-1.60
2019-01-26T12:43:13.235Z,-1.60
2019-01-26T12:45:43.484Z,-1.70
2019-01-26T12:48:13.776Z,-1.80
2019-01-26T12:50:44.261Z,-1.80
2019-01-26T12:53:14.775Z,-1.90
2019-01-26T12:55:45.385Z,-1.80
2019-01-26T12:58:15.894Z,-1.70
2019-01-26T13:00:46.321Z,-1.70
2019-01-26T13:03:16.899Z,-1.50
2019-01-26T13:05:48.172Z,-1.50
2019-01-26T13:08:18.745Z,-1.40
2019-01-26T13:10:52.092Z,-1.40
2019-01-26T13:13:22.477Z,-1.10
2019-01-26T13:15:52.801Z,-1.00
2019-01-26T13:18:24.623Z,-1.10
2019-01-26T13:20:54.927Z,-1.10
2019-01-26T13:23:25.538Z,-1.20
2019-01-26T13:25:56.078Z,-1.40
2019-01-26T13:28:26.446Z,-1.50
2019-01-26T13:30:56.836Z,-1.70
2019-01-26T13:33:27.392Z,-1.80
2019-01-26T13:35:58.792Z,-1.90
2019-01-26T13:38:29.227Z,-1.90
2019-01-26T13:40:59.672Z,-2.00
2019-01-26T13:43:30.069Z,-2.00
2019-01-26T13:46:00.882Z,-1.70
2019-01-26T13:48:31.310Z,-1.50
2019-01-26T13:51:02.877Z,-1.30
2019-01-26T13:53:33.150Z,-1.40
2019-01-26T13:56:03.501Z,-1.40
2019-01-26T13:58:33.851Z,-1.30
2019-01-26T14:01:04.394Z,-1.30
2019-01-26T14:03:35.031Z,-1.20
2019-01-26T14:06:05.842Z,-1.50
2019-01-26T14:08:36.410Z,-1.50
2019-01-26T14:11:20.133Z,-1.50
2019-01-26T14:13:51.670Z,-1.50
2019-01-26T14:16:22.259Z,-1.50
2019-01-26T14:18:52.691Z,-1.50
2019-01-26T14:21:23.242Z,-1.80
2019-01-26T14:23:55.019Z,-2.00
2019-01-26T14:26:25.450Z,-2.10
2019-01-26T14:28:56.072Z,-2.30
2019-01-26T14:31:27.150Z,-2.50
2019-01-26T14:33:57.651Z,-2.60
2019-01-26T14:36:28.272Z,-2.80
2019-01-26T14:38:58.911Z,-3.00
2019-01-26T14:41:29.413Z,-3.20
2019-01-26T14:43:59.961Z,-3.30
2019-01-26T14:46:30.871Z,-3.50
2019-01-26T14:49:01.335Z,-3.60
2019-01-26T14:51:31.968Z,-3.80
2019-01-26T14:54:02.433Z,-4.00
2019-01-26T14:56:33.455Z,-4.10
2019-01-26T14:59:05.489Z,-4.20
2019-01-26T15:01:36.118Z,-4.40
2019-01-26T15:04:06.527Z,-4.40
2019-01-26T15:06:40.374Z,-4.50
2019-01-26T15:09:11.061Z,-4.50
2019-01-26T15:11:43.292Z,-4.50
2019-01-26T15:14:14.222Z,-4.60
2019-01-26T15:16:44.900Z,-4.70
2019-01-26T15:19:15.709Z,-4.70
2019-01-26T15:21:46.551Z,-4.70
2019-01-26T15:24:17.057Z,-4.70
2019-01-26T15:26:47.672Z,-4.80
2019-01-26T15:29:18.294Z,-4.90
2019-01-26T15:31:48.765Z,-5.00
2019-01-26T15:34:19.281Z,-5.00
2019-01-26T15:36:49.780Z,-5.00
2019-01-26T15:39:20.191Z,-5.10
2019-01-26T15:41:50.734Z,-5.10
2019-01-26T15:44:21.383Z,-5.10
2019-01-26T15:46:51.963Z,-5.20
2019-01-26T15:49:22.529Z,-5.20
2019-01-26T15:51:52.926Z,-5.20
2019-01-26T15:54:23.262Z,-5.20
2019-01-26T15:56:53.854Z,-5.20
2019-01-26T15:59:24.513Z,-5.10
2019-01-26T16:01:55.110Z,-5.00
2019-01-26T16:04:25.800Z,-5.00
2019-01-26T16:06:58.702Z,-5.00
2019-01-26T16:09:29.171Z,-5.10
2019-01-26T16:11:59.698Z,-5.00
2019-01-26T16:14:30.222Z,-5.10
2019-01-26T16:17:01.208Z,-5.20
2019-01-26T16:19:31.691Z,-5.30
2019-01-26T16:22:02.383Z,-5.30
2019-01-26T16:24:32.830Z,-5.40
2019-01-26T16:27:03.357Z,-5.50
2019-01-26T16:29:33.856Z,-5.70
2019-01-26T16:32:04.229Z,-5.70
2019-01-26T16:34:34.690Z,-5.80
2019-01-26T16:37:05.187Z,-5.80
2019-01-26T16:39:35.859Z,-5.70
2019-01-26T16:42:06.621Z,-5.70
2019-01-26T16:44:37.212Z,-5.60
2019-01-26T16:47:07.696Z,-5.60
2019-01-26T16:49:38.708Z,-5.50
2019-01-26T16:52:13.988Z,-5.50
2019-01-26T16:54:41.704Z,-5.40
2019-01-26T16:57:12.793Z,-5.30
2019-01-26T16:59:43.297Z,-5.20
2019-01-26T17:02:14.553Z,-5.20
2019-01-26T17:04:44.980Z,-5.10
2019-01-26T17:07:15.724Z,-5.10
2019-01-26T17:09:46.043Z,-5.00
2019-01-26T17:12:16.670Z,-5.00
2019-01-26T17:14:47.241Z,-5.00
2019-01-26T17:17:18.152Z,-4.90
2019-01-26T17:19:48.736Z,-4.80
2019-01-26T17:22:19.286Z,-4.80
2019-01-26T17:24:50.012Z,-4.80
2019-01-26T17:27:20.399Z,-4.70
2019-01-26T17:29:50.712Z,-4.70
2019-01-26T17:32:21.385Z,-4.60
2019-01-26T17:34:51.643Z,-4.60
2019-01-26T17:37:22.150Z,-4.60
2019-01-26T17:39:52.664Z,-4.60
2019-01-26T17:42:23.422Z,-4.60
2019-01-26T17:44:54.634Z,-4.60
2019-01-26T17:47:25.155Z,-4.60
2019-01-26T17:50:01.771Z,-4.50
2019-01-26T17:52:32.571Z,-4.50
2019-01-26T17:55:03.591Z,-4.50
2019-01-26T17:57:34.063Z,-4.50
2019-01-26T18:00:05.301Z,-4.50
2019-01-26T18:02:35.762Z,-4.50
2019-01-26T18:05:08.061Z,-4.50
2019-01-26T18:07:38.517Z,-4.50
2019-01-26T18:10:13.111Z,-4.50
2019-01-26T18:12:43.977Z,-4.60
2019-01-26T18:15:15.241Z,-4.50
2019-01-26T18:17:46.215Z,-4.60
2019-01-26T18:20:20.082Z,-4.60
2019-01-26T18:22:50.591Z,-4.60
2019-01-26T18:25:22.033Z,-4.60
2019-01-26T18:27:52.468Z,-4.60
2019-01-26T18:30:24.558Z,-4.60
2019-01-26T18:32:55.139Z,-4.60
2019-01-26T18:35:25.790Z,-4.60
2019-01-26T18:37:56.332Z,-4.60
2019-01-26T18:40:26.948Z,-4.60
2019-01-26T18:42:57.392Z,-4.60
2019-01-26T18:45:28.738Z,-4.60
2019-01-26T18:47:59.508Z,-4.60
2019-01-26T18:50:32.686Z,-4.60
2019-01-26T18:53:03.065Z,-4.60
2019-01-26T18:55:33.607Z,-4.50
2019-01-26T18:58:04.083Z,-4.50
2019-01-26T19:00:37.450Z,-4.50
2019-01-26T19:03:36.594Z,-4.60
2019-01-26T19:06:08.292Z,-4.60
2019-01-26T19:08:38.732Z,-4.60
2019-01-26T19:11:09.248Z,-4.60
2019-01-26T19:13:40.039Z,-4.70
2019-01-26T19:16:10.481Z,-4.70
2019-01-26T19:18:43.788Z,-4.70
2019-01-26T19:21:14.438Z,-4.70
2019-01-26T19:23:45.227Z,-4.70
2019-01-26T19:26:15.541Z,-4.70
2019-01-26T19:28:46.786Z,-4.70
2019-01-26T19:31:17.793Z,-4.70
2019-01-26T19:33:48.465Z,-4.70
2019-01-26T19:36:19.141Z,-4.70
2019-01-26T19:38:51.604Z,-4.70
2019-01-26T19:41:25.458Z,-4.70
2019-01-26T19:43:55.986Z,-4.70
2019-01-26T19:46:26.564Z,-4.70
2019-01-26T19:48:57.644Z,-4.60
2019-01-26T19:51:29.669Z,-4.70
2019-01-26T19:54:00.223Z,-4.70
2019-01-26T19:56:30.843Z,-4.70
2019-01-26T19:59:01.393Z,-4.60
2019-01-26T20:01:32.938Z,-4.60
2019-01-26T20:04:05.048Z,-4.60
2019-01-26T20:06:38.057Z,-4.60
2019-01-26T20:09:11.928Z,-4.60
2019-01-26T20:11:52.346Z,-4.60
2019-01-26T20:14:41.548Z,-4.60
2019-01-26T20:17:12.031Z,-4.50
2019-01-26T20:19:42.416Z,-4.50
2019-01-26T20:22:13.052Z,-4.60
2019-01-26T20:24:43.630Z,-4.60
2019-01-26T20:27:14.127Z,-4.60
2019-01-26T20:29:44.412Z,-4.60
2019-01-26T20:32:14.818Z,-4.60
2019-01-26T20:34:45.212Z,-4.50
2019-01-26T20:37:15.517Z,-4.50
2019-01-26T20:39:45.884Z,-4.50
2019-01-26T20:42:16.396Z,-4.50
2019-01-26T20:44:46.928Z,-4.50
2019-01-26T20:47:17.341Z,-4.50
2019-01-26T20:49:47.651Z,-4.50
2019-01-26T20:52:18.122Z,-4.50
2019-01-26T20:54:48.314Z,-4.50
2019-01-26T20:57:18.768Z,-4.50
2019-01-26T20:59:49.139Z,-4.50
2019-01-26T21:02:19.534Z,-4.50
2019-01-26T21:04:50.564Z,-4.50
2019-01-26T21:07:23.349Z,-4.50
2019-01-26T21:09:53.922Z,-4.50
2019-01-26T21:12:24.502Z,-4.50
2019-01-26T21:14:54.921Z,-4.50
2019-01-26T21:17:25.973Z,-4.50
2019-01-26T21:19:56.492Z,-4.50
2019-01-26T21:22:26.959Z,-4.50
2019-01-26T21:24:57.353Z,-4.50
2019-01-26T21:27:27.669Z,-4.50
2019-01-26T21:29:57.960Z,-4.50
2019-01-26T21:32:28.433Z,-4.50
2019-01-26T21:34:58.951Z,-4.50
2019-01-26T21:37:29.333Z,-4.60
2019-01-26T21:39:59.710Z,-4.60
2019-01-26T21:42:30.050Z,-4.60
2019-01-26T21:45:00.355Z,-4.60
2019-01-26T21:47:30.724Z,-4.60
2019-01-26T21:50:01.171Z,-4.60
2019-01-26T21:52:40.967Z,-4.60
2019-01-26T21:55:08.298Z,-4.60
2019-01-26T21:57:46.035Z,-4.60
2019-01-26T22:00:21.198Z,-4.60
2019-01-26T22:02:51.659Z,-4.60
2019-01-26T22:05:21.915Z,-4.60
2019-01-26T22:07:52.416Z,-4.60
2019-01-26T22:10:23.250Z,-4.60
2019-01-26T22:12:53.623Z,-4.50
2019-01-26T22:15:24.252Z,-4.60
2019-01-26T22:17:54.549Z,-4.60
2019-01-26T22:20:26.813Z,-4.60
2019-01-26T22:22:58.642Z,-4.60
2019-01-26T22:25:29.023Z,-4.60
2019-01-26T22:27:59.479Z,-4.60
2019-01-26T22:30:31.784Z,-4.60
2019-01-26T22:33:02.056Z,-4.60
2019-01-26T22:35:32.420Z,-4.60
2019-01-26T22:38:02.694Z,-4.60
2019-01-26T22:40:35.105Z,-4.60
2019-01-26T22:43:05.854Z,-4.60
2019-01-26T22:45:36.599Z,-4.60
2019-01-26T22:48:07.428Z,-4.60
2019-01-26T22:50:37.861Z,-4.60
2019-01-26T22:53:08.329Z,-4.60
2019-01-26T22:55:38.791Z,-4.60
2019-01-26T22:58:09.339Z,-4.60
2019-01-26T23:00:55.816Z,-4.60
2019-01-26T23:03:44.502Z,-4.60
2019-01-26T23:06:33.314Z,-4.60
2019-01-26T23:09:15.343Z,-4.60
2019-01-26T23:12:11.950Z,-4.60
2019-01-26T23:15:10.578Z,-4.60
2019-01-26T23:18:03.940Z,-4.60
2019-01-26T23:21:01.197Z,-4.60
2019-01-26T23:24:10.037Z,-4.60
2019-01-26T23:27:06.921Z,-4.70
2019-01-26T23:30:00.759Z,-4.70
2019-01-26T23:32:31.300Z,-4.70
2019-01-26T23:35:01.707Z,-4.70
2019-01-26T23:37:32.132Z,-4.70
2019-01-26T23:40:02.341Z,-4.70
2019-01-26T23:42:32.776Z,-4.80
2019-01-26T23:45:04.030Z,-4.80
2019-01-26T23:47:34.435Z,-4.80
2019-01-26T23:50:05.088Z,-4.80
2019-01-26T23:52:35.507Z,-4.90
2019-01-26T23:55:06.144Z,-4.90
2019-01-26T23:57:36.464Z,-4.90
